sensor_id;sensor_type;location;lat;lon;timestamp;P1;durP1;ratioP1;P2;durP2;ratioP2
52494;SDS011;38405;53.212;5.660;2023-12-22T00:01:08;19.77;;;3.50;;
52494;SDS011;38405;53.212;5.660;2023-12-22T00:03:34;16.38;;;3.20;;
52494;SDS011;38405;53.212;5.660;2023-12-22T00:05:59;23.63;;;3.78;;
52494;SDS011;38405;53.212;5.660;2023-12-22T00:08:25;31.50;;;4.40;;
52494;SDS011;38405;53.212;5.660;2023-12-22T00:10:51;33.83;;;5.47;;
52494;SDS011;38405;53.212;5.660;2023-12-22T00:13:16;34.35;;;5.93;;
52494;SDS011;38405;53.212;5.660;2023-12-22T00:15:42;30.70;;;4.50;;
52494;SDS011;38405;53.212;5.660;2023-12-22T00:18:08;32.05;;;4.30;;
52494;SDS011;38405;53.212;5.660;2023-12-22T00:20:34;20.70;;;4.03;;
52494;SDS011;38405;53.212;5.660;2023-12-22T00:23:00;22.95;;;4.40;;
52494;SDS011;38405;53.212;5.660;2023-12-22T00:25:25;26.88;;;5.13;;
52494;SDS011;38405;53.212;5.660;2023-12-22T00:27:51;28.00;;;5.20;;
52494;SDS011;38405;53.212;5.660;2023-12-22T00:30:17;30.58;;;5.25;;
52494;SDS011;38405;53.212;5.660;2023-12-22T00:32:42;32.17;;;4.63;;
52494;SDS011;38405;53.212;5.660;2023-12-22T00:35:08;19.25;;;3.92;;
52494;SDS011;38405;53.212;5.660;2023-12-22T00:37:34;19.83;;;3.60;;
52494;SDS011;38405;53.212;5.660;2023-12-22T00:40:00;22.48;;;3.80;;
52494;SDS011;38405;53.212;5.660;2023-12-22T00:42:25;22.95;;;3.85;;
52494;SDS011;38405;53.212;5.660;2023-12-22T00:44:51;21.20;;;4.03;;
52494;SDS011;38405;53.212;5.660;2023-12-22T00:47:17;23.15;;;4.07;;
52494;SDS011;38405;53.212;5.660;2023-12-22T00:49:43;24.73;;;4.55;;
52494;SDS011;38405;53.212;5.660;2023-12-22T00:52:08;19.92;;;3.45;;
52494;SDS011;38405;53.212;5.660;2023-12-22T00:54:34;21.13;;;3.65;;
52494;SDS011;38405;53.212;5.660;2023-12-22T00:57:00;21.30;;;4.50;;
52494;SDS011;38405;53.212;5.660;2023-12-22T00:59:25;22.52;;;3.63;;
52494;SDS011;38405;53.212;5.660;2023-12-22T01:01:51;22.75;;;4.30;;
52494;SDS011;38405;53.212;5.660;2023-12-22T01:04:17;29.42;;;5.68;;
52494;SDS011;38405;53.212;5.660;2023-12-22T01:06:42;32.65;;;5.22;;
52494;SDS011;38405;53.212;5.660;2023-12-22T01:09:08;31.40;;;5.68;;
52494;SDS011;38405;53.212;5.660;2023-12-22T01:11:34;27.40;;;4.55;;
52494;SDS011;38405;53.212;5.660;2023-12-22T01:14:00;24.00;;;4.07;;
52494;SDS011;38405;53.212;5.660;2023-12-22T01:16:25;34.28;;;5.32;;
52494;SDS011;38405;53.212;5.660;2023-12-22T01:18:51;29.92;;;5.82;;
52494;SDS011;38405;53.212;5.660;2023-12-22T01:21:17;23.00;;;4.57;;
52494;SDS011;38405;53.212;5.660;2023-12-22T01:23:43;32.63;;;4.75;;
52494;SDS011;38405;53.212;5.660;2023-12-22T01:26:08;25.38;;;4.47;;
52494;SDS011;38405;53.212;5.660;2023-12-22T01:28:34;40.08;;;5.45;;
52494;SDS011;38405;53.212;5.660;2023-12-22T01:31:00;30.15;;;5.10;;
52494;SDS011;38405;53.212;5.660;2023-12-22T01:33:26;30.52;;;5.07;;
52494;SDS011;38405;53.212;5.660;2023-12-22T01:35:52;29.23;;;4.53;;
52494;SDS011;38405;53.212;5.660;2023-12-22T01:38:17;31.30;;;5.10;;
52494;SDS011;38405;53.212;5.660;2023-12-22T01:40:43;34.92;;;5.60;;
52494;SDS011;38405;53.212;5.660;2023-12-22T01:43:09;38.88;;;5.88;;
52494;SDS011;38405;53.212;5.660;2023-12-22T01:45:35;27.65;;;5.22;;
52494;SDS011;38405;53.212;5.660;2023-12-22T01:48:01;20.80;;;3.63;;
52494;SDS011;38405;53.212;5.660;2023-12-22T01:50:27;17.83;;;2.83;;
52494;SDS011;38405;53.212;5.660;2023-12-22T01:52:53;34.92;;;4.93;;
52494;SDS011;38405;53.212;5.660;2023-12-22T01:55:19;17.05;;;2.97;;
52494;SDS011;38405;53.212;5.660;2023-12-22T01:57:46;12.90;;;2.63;;
52494;SDS011;38405;53.212;5.660;2023-12-22T02:00:12;18.77;;;4.32;;
52494;SDS011;38405;53.212;5.660;2023-12-22T02:02:39;10.38;;;2.45;;
52494;SDS011;38405;53.212;5.660;2023-12-22T02:05:09;17.13;;;2.30;;
52494;SDS011;38405;53.212;5.660;2023-12-22T02:07:37;16.80;;;2.80;;
52494;SDS011;38405;53.212;5.660;2023-12-22T02:10:07;18.42;;;2.97;;
52494;SDS011;38405;53.212;5.660;2023-12-22T02:12:34;15.77;;;3.17;;
52494;SDS011;38405;53.212;5.660;2023-12-22T02:15:03;22.50;;;3.78;;
52494;SDS011;38405;53.212;5.660;2023-12-22T02:20:15;15.43;;;2.50;;
52494;SDS011;38405;53.212;5.660;2023-12-22T02:22:41;8.18;;;2.08;;
52494;SDS011;38405;53.212;5.660;2023-12-22T02:25:07;16.70;;;3.10;;
52494;SDS011;38405;53.212;5.660;2023-12-22T02:30:19;6.03;;;1.65;;
52494;SDS011;38405;53.212;5.660;2023-12-22T02:35:24;4.72;;;1.65;;
52494;SDS011;38405;53.212;5.660;2023-12-22T02:37:52;13.48;;;1.95;;
52494;SDS011;38405;53.212;5.660;2023-12-22T02:40:19;17.50;;;2.45;;
52494;SDS011;38405;53.212;5.660;2023-12-22T02:42:45;25.42;;;3.80;;
52494;SDS011;38405;53.212;5.660;2023-12-22T02:45:14;25.92;;;4.28;;
52494;SDS011;38405;53.212;5.660;2023-12-22T02:47:42;24.13;;;4.38;;
52494;SDS011;38405;53.212;5.660;2023-12-22T02:50:08;17.08;;;3.08;;
52494;SDS011;38405;53.212;5.660;2023-12-22T02:52:34;21.10;;;3.33;;
52494;SDS011;38405;53.212;5.660;2023-12-22T02:55:00;18.35;;;2.95;;
52494;SDS011;38405;53.212;5.660;2023-12-22T02:57:26;23.00;;;3.63;;
52494;SDS011;38405;53.212;5.660;2023-12-22T02:59:52;23.63;;;4.13;;
52494;SDS011;38405;53.212;5.660;2023-12-22T03:02:18;34.78;;;4.07;;
52494;SDS011;38405;53.212;5.660;2023-12-22T03:04:43;18.77;;;3.42;;
52494;SDS011;38405;53.212;5.660;2023-12-22T03:07:11;15.70;;;2.78;;
52494;SDS011;38405;53.212;5.660;2023-12-22T03:09:37;20.70;;;3.67;;
52494;SDS011;38405;53.212;5.660;2023-12-22T03:12:03;18.73;;;3.50;;
52494;SDS011;38405;53.212;5.660;2023-12-22T03:14:29;23.10;;;3.58;;
52494;SDS011;38405;53.212;5.660;2023-12-22T03:16:56;19.67;;;3.60;;
52494;SDS011;38405;53.212;5.660;2023-12-22T03:19:22;14.70;;;2.83;;
52494;SDS011;38405;53.212;5.660;2023-12-22T03:21:50;23.38;;;4.00;;
52494;SDS011;38405;53.212;5.660;2023-12-22T03:24:16;36.47;;;4.50;;
52494;SDS011;38405;53.212;5.660;2023-12-22T03:26:44;24.38;;;3.60;;
52494;SDS011;38405;53.212;5.660;2023-12-22T03:29:10;13.65;;;3.10;;
52494;SDS011;38405;53.212;5.660;2023-12-22T03:31:36;27.17;;;3.90;;
52494;SDS011;38405;53.212;5.660;2023-12-22T03:34:02;25.35;;;4.15;;
52494;SDS011;38405;53.212;5.660;2023-12-22T03:36:27;16.70;;;3.30;;
52494;SDS011;38405;53.212;5.660;2023-12-22T03:38:53;19.88;;;3.05;;
52494;SDS011;38405;53.212;5.660;2023-12-22T03:41:19;22.35;;;4.03;;
52494;SDS011;38405;53.212;5.660;2023-12-22T03:43:44;20.63;;;3.40;;
52494;SDS011;38405;53.212;5.660;2023-12-22T03:46:10;17.98;;;3.50;;
52494;SDS011;38405;53.212;5.660;2023-12-22T03:48:36;21.17;;;3.35;;
52494;SDS011;38405;53.212;5.660;2023-12-22T03:51:01;20.10;;;3.70;;
52494;SDS011;38405;53.212;5.660;2023-12-22T03:53:27;18.42;;;3.53;;
52494;SDS011;38405;53.212;5.660;2023-12-22T03:55:52;21.98;;;3.97;;
52494;SDS011;38405;53.212;5.660;2023-12-22T03:58:18;23.83;;;3.75;;
52494;SDS011;38405;53.212;5.660;2023-12-22T04:00:44;17.30;;;3.45;;
52494;SDS011;38405;53.212;5.660;2023-12-22T04:03:09;22.95;;;3.90;;
52494;SDS011;38405;53.212;5.660;2023-12-22T04:05:35;30.95;;;4.03;;
52494;SDS011;38405;53.212;5.660;2023-12-22T04:08:00;23.92;;;4.53;;
52494;SDS011;38405;53.212;5.660;2023-12-22T04:10:26;16.58;;;3.25;;
52494;SDS011;38405;53.212;5.660;2023-12-22T04:12:52;25.63;;;3.90;;
52494;SDS011;38405;53.212;5.660;2023-12-22T04:15:17;30.10;;;4.18;;
52494;SDS011;38405;53.212;5.660;2023-12-22T04:17:43;23.20;;;3.97;;
52494;SDS011;38405;53.212;5.660;2023-12-22T04:20:09;14.32;;;3.03;;
52494;SDS011;38405;53.212;5.660;2023-12-22T04:22:35;19.60;;;3.33;;
52494;SDS011;38405;53.212;5.660;2023-12-22T04:25:00;20.10;;;2.92;;
52494;SDS011;38405;53.212;5.660;2023-12-22T04:27:26;19.40;;;3.47;;
52494;SDS011;38405;53.212;5.660;2023-12-22T04:29:52;18.17;;;3.47;;
52494;SDS011;38405;53.212;5.660;2023-12-22T04:32:17;26.77;;;4.80;;
52494;SDS011;38405;53.212;5.660;2023-12-22T04:34:43;16.13;;;4.28;;
52494;SDS011;38405;53.212;5.660;2023-12-22T04:37:10;21.48;;;4.07;;
52494;SDS011;38405;53.212;5.660;2023-12-22T04:39:35;23.33;;;3.35;;
52494;SDS011;38405;53.212;5.660;2023-12-22T04:42:01;25.83;;;3.58;;
52494;SDS011;38405;53.212;5.660;2023-12-22T04:44:26;21.00;;;4.55;;
52494;SDS011;38405;53.212;5.660;2023-12-22T04:46:52;24.50;;;4.10;;
52494;SDS011;38405;53.212;5.660;2023-12-22T04:49:18;21.77;;;4.00;;
52494;SDS011;38405;53.212;5.660;2023-12-22T04:51:43;28.80;;;3.70;;
52494;SDS011;38405;53.212;5.660;2023-12-22T04:54:09;26.35;;;4.25;;
52494;SDS011;38405;53.212;5.660;2023-12-22T04:56:35;14.48;;;3.47;;
52494;SDS011;38405;53.212;5.660;2023-12-22T04:59:00;18.75;;;3.67;;
52494;SDS011;38405;53.212;5.660;2023-12-22T05:01:26;19.40;;;3.42;;
52494;SDS011;38405;53.212;5.660;2023-12-22T05:03:52;13.40;;;2.92;;
52494;SDS011;38405;53.212;5.660;2023-12-22T05:06:19;17.55;;;2.85;;
52494;SDS011;38405;53.212;5.660;2023-12-22T05:08:45;17.42;;;3.88;;
52494;SDS011;38405;53.212;5.660;2023-12-22T05:11:11;21.17;;;3.42;;
52494;SDS011;38405;53.212;5.660;2023-12-22T05:13:37;21.40;;;4.47;;
52494;SDS011;38405;53.212;5.660;2023-12-22T05:16:03;24.42;;;3.78;;
52494;SDS011;38405;53.212;5.660;2023-12-22T05:18:32;25.45;;;3.90;;
52494;SDS011;38405;53.212;5.660;2023-12-22T05:20:57;22.42;;;3.50;;
52494;SDS011;38405;53.212;5.660;2023-12-22T05:23:23;15.13;;;3.00;;
52494;SDS011;38405;53.212;5.660;2023-12-22T05:25:48;22.40;;;3.55;;
52494;SDS011;38405;53.212;5.660;2023-12-22T05:28:14;17.17;;;3.22;;
52494;SDS011;38405;53.212;5.660;2023-12-22T05:30:40;16.55;;;3.15;;
52494;SDS011;38405;53.212;5.660;2023-12-22T05:33:05;15.93;;;2.78;;
52494;SDS011;38405;53.212;5.660;2023-12-22T05:35:31;21.73;;;3.28;;
52494;SDS011;38405;53.212;5.660;2023-12-22T05:37:56;25.02;;;4.13;;
52494;SDS011;38405;53.212;5.660;2023-12-22T05:40:22;21.27;;;4.00;;
52494;SDS011;38405;53.212;5.660;2023-12-22T05:42:48;22.90;;;3.75;;
52494;SDS011;38405;53.212;5.660;2023-12-22T05:45:14;20.70;;;3.50;;
52494;SDS011;38405;53.212;5.660;2023-12-22T05:47:40;20.73;;;3.70;;
52494;SDS011;38405;53.212;5.660;2023-12-22T05:50:05;22.25;;;3.30;;
52494;SDS011;38405;53.212;5.660;2023-12-22T05:52:32;26.33;;;3.88;;
52494;SDS011;38405;53.212;5.660;2023-12-22T05:54:58;16.33;;;4.15;;
52494;SDS011;38405;53.212;5.660;2023-12-22T05:57:26;24.63;;;3.50;;
52494;SDS011;38405;53.212;5.660;2023-12-22T05:59:52;16.98;;;3.08;;
52494;SDS011;38405;53.212;5.660;2023-12-22T06:02:18;12.43;;;3.28;;
52494;SDS011;38405;53.212;5.660;2023-12-22T06:04:44;16.15;;;2.45;;
52494;SDS011;38405;53.212;5.660;2023-12-22T06:07:10;24.48;;;3.72;;
52494;SDS011;38405;53.212;5.660;2023-12-22T06:09:36;19.23;;;2.78;;
52494;SDS011;38405;53.212;5.660;2023-12-22T06:12:02;23.98;;;3.40;;
52494;SDS011;38405;53.212;5.660;2023-12-22T06:14:28;18.05;;;2.63;;
52494;SDS011;38405;53.212;5.660;2023-12-22T06:16:53;18.83;;;3.13;;
52494;SDS011;38405;53.212;5.660;2023-12-22T06:19:21;15.32;;;2.85;;
52494;SDS011;38405;53.212;5.660;2023-12-22T06:21:49;13.00;;;2.78;;
52494;SDS011;38405;53.212;5.660;2023-12-22T06:24:15;21.10;;;3.45;;
52494;SDS011;38405;53.212;5.660;2023-12-22T06:26:41;20.92;;;3.85;;
52494;SDS011;38405;53.212;5.660;2023-12-22T06:29:07;16.90;;;3.17;;
52494;SDS011;38405;53.212;5.660;2023-12-22T06:31:34;25.08;;;3.25;;
52494;SDS011;38405;53.212;5.660;2023-12-22T06:34:00;15.35;;;2.95;;
52494;SDS011;38405;53.212;5.660;2023-12-22T06:36:27;18.63;;;3.08;;
52494;SDS011;38405;53.212;5.660;2023-12-22T06:38:55;19.73;;;2.75;;
52494;SDS011;38405;53.212;5.660;2023-12-22T06:43:55;24.52;;;3.65;;
52494;SDS011;38405;53.212;5.660;2023-12-22T06:46:22;18.58;;;3.53;;
52494;SDS011;38405;53.212;5.660;2023-12-22T06:48:52;14.20;;;2.97;;
52494;SDS011;38405;53.212;5.660;2023-12-22T06:51:19;21.33;;;3.30;;
52494;SDS011;38405;53.212;5.660;2023-12-22T06:53:47;26.20;;;3.67;;
52494;SDS011;38405;53.212;5.660;2023-12-22T06:58:49;15.93;;;3.45;;
52494;SDS011;38405;53.212;5.660;2023-12-22T07:01:19;24.23;;;3.40;;
52494;SDS011;38405;53.212;5.660;2023-12-22T07:04:01;16.58;;;3.30;;
52494;SDS011;38405;53.212;5.660;2023-12-22T07:06:28;22.73;;;3.55;;
52494;SDS011;38405;53.212;5.660;2023-12-22T07:11:37;25.95;;;4.43;;
52494;SDS011;38405;53.212;5.660;2023-12-22T07:14:02;22.13;;;3.55;;
52494;SDS011;38405;53.212;5.660;2023-12-22T07:16:28;28.02;;;3.75;;
52494;SDS011;38405;53.212;5.660;2023-12-22T07:18:54;32.55;;;4.05;;
52494;SDS011;38405;53.212;5.660;2023-12-22T07:21:19;27.33;;;4.13;;
52494;SDS011;38405;53.212;5.660;2023-12-22T07:23:45;22.85;;;3.58;;
52494;SDS011;38405;53.212;5.660;2023-12-22T07:26:11;27.00;;;3.75;;
52494;SDS011;38405;53.212;5.660;2023-12-22T07:28:37;21.73;;;3.35;;
52494;SDS011;38405;53.212;5.660;2023-12-22T07:31:03;21.70;;;3.00;;
52494;SDS011;38405;53.212;5.660;2023-12-22T07:33:28;8.13;;;2.72;;
52494;SDS011;38405;53.212;5.660;2023-12-22T07:35:54;13.52;;;2.03;;
52494;SDS011;38405;53.212;5.660;2023-12-22T07:38:20;24.42;;;3.28;;
52494;SDS011;38405;53.212;5.660;2023-12-22T07:40:45;10.13;;;2.22;;
52494;SDS011;38405;53.212;5.660;2023-12-22T07:43:11;13.02;;;2.40;;
52494;SDS011;38405;53.212;5.660;2023-12-22T07:45:38;10.00;;;2.05;;
52494;SDS011;38405;53.212;5.660;2023-12-22T07:48:04;11.30;;;1.83;;
52494;SDS011;38405;53.212;5.660;2023-12-22T07:50:33;8.32;;;1.55;;
52494;SDS011;38405;53.212;5.660;2023-12-22T07:52:58;9.48;;;1.40;;
52494;SDS011;38405;53.212;5.660;2023-12-22T07:55:24;11.60;;;2.08;;
52494;SDS011;38405;53.212;5.660;2023-12-22T07:57:50;10.23;;;1.38;;
52494;SDS011;38405;53.212;5.660;2023-12-22T08:00:16;7.93;;;1.45;;
52494;SDS011;38405;53.212;5.660;2023-12-22T08:02:42;9.13;;;1.40;;
52494;SDS011;38405;53.212;5.660;2023-12-22T08:05:08;5.88;;;1.35;;
52494;SDS011;38405;53.212;5.660;2023-12-22T08:07:34;6.90;;;1.38;;
52494;SDS011;38405;53.212;5.660;2023-12-22T08:10:01;7.05;;;1.30;;
52494;SDS011;38405;53.212;5.660;2023-12-22T08:12:27;6.45;;;1.75;;
52494;SDS011;38405;53.212;5.660;2023-12-22T08:14:53;12.98;;;2.13;;
52494;SDS011;38405;53.212;5.660;2023-12-22T08:17:19;13.40;;;2.17;;
52494;SDS011;38405;53.212;5.660;2023-12-22T08:19:45;10.75;;;1.60;;
52494;SDS011;38405;53.212;5.660;2023-12-22T08:22:10;15.68;;;2.28;;
52494;SDS011;38405;53.212;5.660;2023-12-22T08:24:38;15.95;;;2.28;;
52494;SDS011;38405;53.212;5.660;2023-12-22T08:27:04;10.25;;;1.95;;
52494;SDS011;38405;53.212;5.660;2023-12-22T08:29:31;12.13;;;1.88;;
52494;SDS011;38405;53.212;5.660;2023-12-22T08:31:57;19.17;;;2.40;;
52494;SDS011;38405;53.212;5.660;2023-12-22T08:34:23;18.33;;;2.47;;
52494;SDS011;38405;53.212;5.660;2023-12-22T08:36:49;9.38;;;1.98;;
52494;SDS011;38405;53.212;5.660;2023-12-22T08:39:15;13.05;;;2.30;;
52494;SDS011;38405;53.212;5.660;2023-12-22T08:41:41;20.55;;;2.65;;
52494;SDS011;38405;53.212;5.660;2023-12-22T08:44:07;14.02;;;3.00;;
52494;SDS011;38405;53.212;5.660;2023-12-22T08:46:33;20.40;;;2.58;;
52494;SDS011;38405;53.212;5.660;2023-12-22T08:48:59;15.57;;;2.53;;
52494;SDS011;38405;53.212;5.660;2023-12-22T08:51:25;13.55;;;2.50;;
52494;SDS011;38405;53.212;5.660;2023-12-22T08:53:51;16.02;;;3.17;;
52494;SDS011;38405;53.212;5.660;2023-12-22T08:56:19;9.73;;;2.20;;
52494;SDS011;38405;53.212;5.660;2023-12-22T08:58:48;14.98;;;2.88;;
52494;SDS011;38405;53.212;5.660;2023-12-22T09:01:17;18.20;;;2.78;;
52494;SDS011;38405;53.212;5.660;2023-12-22T09:03:43;14.52;;;2.78;;
52494;SDS011;38405;53.212;5.660;2023-12-22T09:06:21;14.80;;;2.45;;
52494;SDS011;38405;53.212;5.660;2023-12-22T09:08:47;19.33;;;2.65;;
52494;SDS011;38405;53.212;5.660;2023-12-22T09:11:15;17.58;;;2.75;;
52494;SDS011;38405;53.212;5.660;2023-12-22T09:13:42;18.35;;;2.88;;
52494;SDS011;38405;53.212;5.660;2023-12-22T09:16:08;13.32;;;2.20;;
52494;SDS011;38405;53.212;5.660;2023-12-22T09:18:34;16.20;;;2.55;;
52494;SDS011;38405;53.212;5.660;2023-12-22T09:21:00;14.10;;;2.30;;
52494;SDS011;38405;53.212;5.660;2023-12-22T09:23:27;16.42;;;2.53;;
52494;SDS011;38405;53.212;5.660;2023-12-22T09:25:53;17.30;;;2.80;;
52494;SDS011;38405;53.212;5.660;2023-12-22T09:28:19;14.52;;;2.42;;
52494;SDS011;38405;53.212;5.660;2023-12-22T09:30:45;17.52;;;2.15;;
52494;SDS011;38405;53.212;5.660;2023-12-22T09:33:10;14.30;;;2.30;;
52494;SDS011;38405;53.212;5.660;2023-12-22T09:35:37;21.38;;;2.78;;
52494;SDS011;38405;53.212;5.660;2023-12-22T09:38:06;21.38;;;3.60;;
52494;SDS011;38405;53.212;5.660;2023-12-22T09:40:35;17.60;;;2.60;;
52494;SDS011;38405;53.212;5.660;2023-12-22T09:43:02;23.52;;;3.15;;
52494;SDS011;38405;53.212;5.660;2023-12-22T09:45:30;17.10;;;2.90;;
52494;SDS011;38405;53.212;5.660;2023-12-22T09:47:58;17.67;;;3.03;;
52494;SDS011;38405;53.212;5.660;2023-12-22T09:50:28;20.10;;;3.00;;
52494;SDS011;38405;53.212;5.660;2023-12-22T09:52:55;20.98;;;2.90;;
52494;SDS011;38405;53.212;5.660;2023-12-22T09:55:22;19.73;;;3.20;;
52494;SDS011;38405;53.212;5.660;2023-12-22T09:57:48;20.25;;;3.20;;
52494;SDS011;38405;53.212;5.660;2023-12-22T10:00:15;26.42;;;2.90;;
52494;SDS011;38405;53.212;5.660;2023-12-22T10:02:41;14.05;;;2.70;;
52494;SDS011;38405;53.212;5.660;2023-12-22T10:05:08;14.80;;;2.83;;
52494;SDS011;38405;53.212;5.660;2023-12-22T10:07:35;23.08;;;2.72;;
52494;SDS011;38405;53.212;5.660;2023-12-22T10:10:01;20.58;;;2.47;;
52494;SDS011;38405;53.212;5.660;2023-12-22T10:12:28;15.32;;;2.67;;
52494;SDS011;38405;53.212;5.660;2023-12-22T10:14:58;15.30;;;2.50;;
52494;SDS011;38405;53.212;5.660;2023-12-22T10:17:25;19.45;;;3.00;;
52494;SDS011;38405;53.212;5.660;2023-12-22T10:19:51;23.08;;;3.20;;
52494;SDS011;38405;53.212;5.660;2023-12-22T10:22:17;25.63;;;2.80;;
52494;SDS011;38405;53.212;5.660;2023-12-22T10:24:46;19.02;;;2.70;;
52494;SDS011;38405;53.212;5.660;2023-12-22T10:27:13;17.33;;;2.50;;
52494;SDS011;38405;53.212;5.660;2023-12-22T10:29:40;16.70;;;3.15;;
52494;SDS011;38405;53.212;5.660;2023-12-22T10:32:06;25.58;;;3.33;;
52494;SDS011;38405;53.212;5.660;2023-12-22T10:34:33;15.32;;;2.60;;
52494;SDS011;38405;53.212;5.660;2023-12-22T10:36:59;15.38;;;2.80;;
52494;SDS011;38405;53.212;5.660;2023-12-22T10:39:29;22.33;;;4.97;;
52494;SDS011;38405;53.212;5.660;2023-12-22T10:41:59;10.43;;;2.35;;
52494;SDS011;38405;53.212;5.660;2023-12-22T10:44:25;15.73;;;3.08;;
52494;SDS011;38405;53.212;5.660;2023-12-22T10:46:52;17.73;;;3.20;;
52494;SDS011;38405;53.212;5.660;2023-12-22T10:49:19;17.27;;;3.33;;
52494;SDS011;38405;53.212;5.660;2023-12-22T10:51:45;25.17;;;3.25;;
52494;SDS011;38405;53.212;5.660;2023-12-22T10:54:11;22.05;;;2.75;;
52494;SDS011;38405;53.212;5.660;2023-12-22T10:56:37;19.60;;;3.13;;
52494;SDS011;38405;53.212;5.660;2023-12-22T10:59:03;21.95;;;3.30;;
52494;SDS011;38405;53.212;5.660;2023-12-22T11:01:30;16.90;;;2.38;;
52494;SDS011;38405;53.212;5.660;2023-12-22T11:04:01;10.93;;;2.20;;
52494;SDS011;38405;53.212;5.660;2023-12-22T11:06:33;17.23;;;2.95;;
52494;SDS011;38405;53.212;5.660;2023-12-22T11:09:00;16.17;;;2.50;;
52494;SDS011;38405;53.212;5.660;2023-12-22T11:11:34;15.23;;;2.75;;
52494;SDS011;38405;53.212;5.660;2023-12-22T11:14:01;12.52;;;2.65;;
52494;SDS011;38405;53.212;5.660;2023-12-22T11:16:27;12.82;;;2.47;;
52494;SDS011;38405;53.212;5.660;2023-12-22T11:18:54;14.70;;;2.50;;
52494;SDS011;38405;53.212;5.660;2023-12-22T11:21:22;13.07;;;2.92;;
52494;SDS011;38405;53.212;5.660;2023-12-22T11:23:49;11.90;;;2.58;;
52494;SDS011;38405;53.212;5.660;2023-12-22T11:26:18;18.08;;;3.10;;
52494;SDS011;38405;53.212;5.660;2023-12-22T11:28:46;14.02;;;2.20;;
52494;SDS011;38405;53.212;5.660;2023-12-22T11:31:13;18.27;;;3.08;;
52494;SDS011;38405;53.212;5.660;2023-12-22T11:33:46;15.35;;;2.90;;
52494;SDS011;38405;53.212;5.660;2023-12-22T11:36:13;25.23;;;3.13;;
52494;SDS011;38405;53.212;5.660;2023-12-22T11:38:39;15.13;;;3.05;;
52494;SDS011;38405;53.212;5.660;2023-12-22T11:41:06;18.35;;;3.28;;
52494;SDS011;38405;53.212;5.660;2023-12-22T11:43:41;12.60;;;2.72;;
52494;SDS011;38405;53.212;5.660;2023-12-22T11:46:09;27.08;;;3.08;;
52494;SDS011;38405;53.212;5.660;2023-12-22T11:48:35;24.48;;;2.35;;
52494;SDS011;38405;53.212;5.660;2023-12-22T11:51:03;24.65;;;3.40;;
52494;SDS011;38405;53.212;5.660;2023-12-22T11:53:40;13.80;;;2.45;;
52494;SDS011;38405;53.212;5.660;2023-12-22T11:56:07;9.77;;;1.80;;
52494;SDS011;38405;53.212;5.660;2023-12-22T11:58:37;15.48;;;2.65;;
52494;SDS011;38405;53.212;5.660;2023-12-22T12:01:05;13.52;;;2.45;;
52494;SDS011;38405;53.212;5.660;2023-12-22T12:03:35;13.38;;;2.10;;
52494;SDS011;38405;53.212;5.660;2023-12-22T12:08:50;17.58;;;2.65;;
52494;SDS011;38405;53.212;5.660;2023-12-22T12:11:16;16.23;;;2.28;;
52494;SDS011;38405;53.212;5.660;2023-12-22T12:13:43;16.20;;;2.50;;
52494;SDS011;38405;53.212;5.660;2023-12-22T12:16:11;14.05;;;2.00;;
52494;SDS011;38405;53.212;5.660;2023-12-22T12:18:38;11.60;;;2.05;;
52494;SDS011;38405;53.212;5.660;2023-12-22T12:21:06;14.25;;;2.50;;
52494;SDS011;38405;53.212;5.660;2023-12-22T12:23:38;15.50;;;2.03;;
52494;SDS011;38405;53.212;5.660;2023-12-22T12:26:09;12.57;;;2.22;;
52494;SDS011;38405;53.212;5.660;2023-12-22T12:28:38;21.70;;;2.65;;
52494;SDS011;38405;53.212;5.660;2023-12-22T12:31:09;18.70;;;3.33;;
52494;SDS011;38405;53.212;5.660;2023-12-22T12:33:35;17.50;;;2.08;;
52494;SDS011;38405;53.212;5.660;2023-12-22T12:36:01;22.30;;;2.28;;
52494;SDS011;38405;53.212;5.660;2023-12-22T12:41:36;29.50;;;4.22;;
52494;SDS011;38405;53.212;5.660;2023-12-22T12:44:06;17.50;;;2.33;;
52494;SDS011;38405;53.212;5.660;2023-12-22T12:46:39;19.98;;;3.20;;
52494;SDS011;38405;53.212;5.660;2023-12-22T12:49:09;19.50;;;3.55;;
52494;SDS011;38405;53.212;5.660;2023-12-22T12:51:43;19.83;;;3.75;;
52494;SDS011;38405;53.212;5.660;2023-12-22T12:54:11;18.80;;;3.15;;
52494;SDS011;38405;53.212;5.660;2023-12-22T12:59:07;17.17;;;2.17;;
52494;SDS011;38405;53.212;5.660;2023-12-22T13:01:41;9.05;;;2.42;;
52494;SDS011;38405;53.212;5.660;2023-12-22T13:04:08;13.43;;;2.25;;
52494;SDS011;38405;53.212;5.660;2023-12-22T13:06:34;18.13;;;1.70;;
52494;SDS011;38405;53.212;5.660;2023-12-22T13:09:00;15.30;;;2.10;;
52494;SDS011;38405;53.212;5.660;2023-12-22T13:11:27;14.90;;;2.10;;
52494;SDS011;38405;53.212;5.660;2023-12-22T13:13:55;10.10;;;1.77;;
52494;SDS011;38405;53.212;5.660;2023-12-22T13:16:22;9.27;;;1.60;;
52494;SDS011;38405;53.212;5.660;2023-12-22T13:18:54;13.32;;;2.10;;
52494;SDS011;38405;53.212;5.660;2023-12-22T13:21:21;12.05;;;1.65;;
52494;SDS011;38405;53.212;5.660;2023-12-22T13:23:47;27.23;;;2.10;;
52494;SDS011;38405;53.212;5.660;2023-12-22T13:26:32;17.27;;;2.15;;
52494;SDS011;38405;53.212;5.660;2023-12-22T13:28:58;9.73;;;1.65;;
52494;SDS011;38405;53.212;5.660;2023-12-22T13:31:25;5.75;;;1.25;;
52494;SDS011;38405;53.212;5.660;2023-12-22T13:33:51;7.90;;;1.10;;
52494;SDS011;38405;53.212;5.660;2023-12-22T13:36:17;3.47;;;0.95;;
52494;SDS011;38405;53.212;5.660;2023-12-22T13:38:47;12.90;;;1.65;;
52494;SDS011;38405;53.212;5.660;2023-12-22T13:41:13;12.65;;;2.05;;
52494;SDS011;38405;53.212;5.660;2023-12-22T13:43:43;7.38;;;1.13;;
52494;SDS011;38405;53.212;5.660;2023-12-22T13:46:13;8.40;;;1.42;;
52494;SDS011;38405;53.212;5.660;2023-12-22T13:48:41;8.82;;;2.42;;
52494;SDS011;38405;53.212;5.660;2023-12-22T13:51:07;11.88;;;1.50;;
52494;SDS011;38405;53.212;5.660;2023-12-22T13:53:33;12.38;;;1.30;;
52494;SDS011;38405;53.212;5.660;2023-12-22T13:56:00;13.00;;;1.67;;
52494;SDS011;38405;53.212;5.660;2023-12-22T13:58:26;6.95;;;1.10;;
52494;SDS011;38405;53.212;5.660;2023-12-22T14:00:52;16.27;;;1.65;;
52494;SDS011;38405;53.212;5.660;2023-12-22T14:03:18;14.10;;;1.60;;
52494;SDS011;38405;53.212;5.660;2023-12-22T14:05:48;11.38;;;1.77;;
52494;SDS011;38405;53.212;5.660;2023-12-22T14:08:14;14.57;;;1.98;;
52494;SDS011;38405;53.212;5.660;2023-12-22T14:10:47;9.73;;;1.52;;
52494;SDS011;38405;53.212;5.660;2023-12-22T14:13:16;20.20;;;1.80;;
52494;SDS011;38405;53.212;5.660;2023-12-22T14:15:42;10.73;;;1.85;;
52494;SDS011;38405;53.212;5.660;2023-12-22T14:18:09;11.55;;;1.75;;
52494;SDS011;38405;53.212;5.660;2023-12-22T14:20:35;13.32;;;1.80;;
52494;SDS011;38405;53.212;5.660;2023-12-22T14:23:01;12.02;;;1.85;;
52494;SDS011;38405;53.212;5.660;2023-12-22T14:25:27;13.60;;;1.65;;
52494;SDS011;38405;53.212;5.660;2023-12-22T14:27:53;10.60;;;2.00;;
52494;SDS011;38405;53.212;5.660;2023-12-22T14:30:22;10.77;;;2.10;;
52494;SDS011;38405;53.212;5.660;2023-12-22T14:32:48;11.88;;;1.92;;
52494;SDS011;38405;53.212;5.660;2023-12-22T14:35:14;11.10;;;1.45;;
52494;SDS011;38405;53.212;5.660;2023-12-22T14:37:40;17.88;;;2.03;;
52494;SDS011;38405;53.212;5.660;2023-12-22T14:40:05;19.85;;;2.42;;
52494;SDS011;38405;53.212;5.660;2023-12-22T14:42:32;19.17;;;2.15;;
52494;SDS011;38405;53.212;5.660;2023-12-22T14:44:57;16.80;;;1.75;;
52494;SDS011;38405;53.212;5.660;2023-12-22T14:47:23;17.60;;;3.25;;
52494;SDS011;38405;53.212;5.660;2023-12-22T14:49:49;14.68;;;1.63;;
52494;SDS011;38405;53.212;5.660;2023-12-22T14:52:14;20.80;;;2.67;;
52494;SDS011;38405;53.212;5.660;2023-12-22T14:54:40;18.90;;;2.45;;
52494;SDS011;38405;53.212;5.660;2023-12-22T14:57:06;12.48;;;1.80;;